createdAt,value
2023-04-08T00:00:49.010Z,195.81
2023-04-08T00:01:49.108Z,196.27
2023-04-08T00:02:49.187Z,194.14
2023-04-08T00:03:49.364Z,196.37
2023-04-08T00:04:49.239Z,198.03
2023-04-08T00:05:49.217Z,199.46
2023-04-08T00:06:49.294Z,199.79
2023-04-08T00:07:49.319Z,197.45
2023-04-08T00:08:49.593Z,196.46
2023-04-08T00:09:49.392Z,198.60
2023-04-08T00:10:49.416Z,198.59
2023-04-08T00:11:49.463Z,200.26
2023-04-08T00:12:49.517Z,201.69
2023-04-08T00:13:49.534Z,201.61
2023-04-08T00:14:49.602Z,202.19
2023-04-08T00:15:49.609Z,201.65
2023-04-08T00:16:49.689Z,204.68
2023-04-08T00:17:49.758Z,204.22
2023-04-08T00:18:49.904Z,203.09
2023-04-08T00:19:49.782Z,202.54
2023-04-08T00:20:49.827Z,201.98
2023-04-08T00:21:49.843Z,202.50
2023-04-08T00:22:49.912Z,202.78
2023-04-08T00:23:49.933Z,202.92
2023-04-08T00:24:50.014Z,205.74
2023-04-08T00:25:49.965Z,204.41
2023-04-08T00:26:50.031Z,205.00
2023-04-08T00:27:49.989Z,204.96
2023-04-08T00:28:50.145Z,206.32
2023-04-08T00:29:50.063Z,204.79
2023-04-08T00:30:50.157Z,208.16
2023-04-08T00:31:50.136Z,207.44
2023-04-08T00:32:50.224Z,208.36
2023-04-08T00:33:50.243Z,207.59
2023-04-08T00:34:50.274Z,211.41
2023-04-08T00:35:50.381Z,210.23
2023-04-08T00:36:50.337Z,210.95
2023-04-08T00:37:50.394Z,211.24
2023-04-08T00:38:50.663Z,211.22
2023-04-08T00:39:50.457Z,210.12
2023-04-08T00:40:50.510Z,209.02
2023-04-08T00:41:50.569Z,208.15
2023-04-08T00:42:50.582Z,210.14
2023-04-08T00:43:50.628Z,212.14
2023-04-08T00:44:50.934Z,212.17
2023-04-08T00:45:50.751Z,210.12
2023-04-08T00:46:50.737Z,211.48
2023-04-08T00:47:50.899Z,211.74
2023-04-08T00:48:50.982Z,212.57
2023-04-08T00:49:50.869Z,212.44
2023-04-08T00:50:50.931Z,212.64
2023-04-08T00:51:50.972Z,215.85
2023-04-08T00:52:50.993Z,214.79
2023-04-08T00:53:50.997Z,214.79
2023-04-08T00:54:51.070Z,216.39
2023-04-08T00:55:51.123Z,215.02
2023-04-08T00:56:51.129Z,215.49
2023-04-08T00:57:51.184Z,216.00
2023-04-08T00:58:51.582Z,216.39
2023-04-08T00:59:51.266Z,217.84
2023-04-08T01:00:51.322Z,218.02
2023-04-08T01:01:51.446Z,220.04
2023-04-08T01:02:51.478Z,219.80
2023-04-08T01:03:51.547Z,217.01
2023-04-08T01:04:51.486Z,219.58
2023-04-08T01:05:51.532Z,219.93
2023-04-08T01:06:51.598Z,222.22
2023-04-08T01:07:51.677Z,224.05
2023-04-08T01:08:51.840Z,224.04
2023-04-08T01:09:51.733Z,222.71
2023-04-08T01:10:51.765Z,223.80
2023-04-08T01:11:51.804Z,226.58
2023-04-08T01:12:51.839Z,225.92
2023-04-08T01:13:51.869Z,229.12
2023-04-08T01:14:51.946Z,230.45
2023-04-08T01:15:52.011Z,229.80
2023-04-08T01:16:52.006Z,230.47
2023-04-08T01:17:52.129Z,229.96
2023-04-08T01:18:52.177Z,230.18
2023-04-08T01:19:52.161Z,232.75
2023-04-08T01:20:52.198Z,232.93
2023-04-08T01:21:52.248Z,232.52
2023-04-08T01:22:52.287Z,232.16
2023-04-08T01:23:52.332Z,234.82
2023-04-08T01:24:52.396Z,232.66
2023-04-08T01:25:52.422Z,232.66
2023-04-08T01:26:52.459Z,232.87
2023-04-08T01:27:52.530Z,233.50
2023-04-08T01:28:52.572Z,234.69
2023-04-08T01:29:52.569Z,233.90
2023-04-08T01:30:52.748Z,232.55
2023-04-08T01:31:52.685Z,233.74
2023-04-08T01:32:52.762Z,235.74
2023-04-08T01:33:52.765Z,234.56
2023-04-08T01:34:52.836Z,238.87
2023-04-08T01:35:52.877Z,236.30
2023-04-08T01:36:52.885Z,237.89
2023-04-08T01:37:52.938Z,237.58
2023-04-08T01:38:53.015Z,233.90
2023-04-08T01:39:53.036Z,236.53
2023-04-08T01:40:53.063Z,232.70
2023-04-08T01:41:53.106Z,233.72
2023-04-08T01:42:53.167Z,232.53
2023-04-08T01:43:53.197Z,235.93
2023-04-08T01:44:53.268Z,233.40
2023-04-08T01:45:53.298Z,233.74
2023-04-08T01:46:53.365Z,233.48
2023-04-08T01:47:53.497Z,232.82
2023-04-08T01:48:53.421Z,232.32
2023-04-08T01:49:53.457Z,232.10
2023-04-08T01:50:53.500Z,233.11
2023-04-08T01:51:53.560Z,231.05
2023-04-08T01:52:53.604Z,231.98
2023-04-08T01:53:53.636Z,233.80
2023-04-08T01:54:53.687Z,235.35
2023-04-08T01:55:53.743Z,234.94
2023-04-08T01:56:53.777Z,236.43
2023-04-08T01:57:53.798Z,236.77
2023-04-08T01:58:53.863Z,234.22
2023-04-08T01:59:53.927Z,234.20
2023-04-08T02:00:53.953Z,236.13
2023-04-08T02:01:54.062Z,235.07
2023-04-08T02:02:54.202Z,232.76
2023-04-08T02:03:54.154Z,234.79
2023-04-08T02:04:54.141Z,236.73
2023-04-08T02:05:54.167Z,238.55
2023-04-08T02:06:54.232Z,238.15
2023-04-08T02:07:54.273Z,237.82
2023-04-08T02:08:54.314Z,237.29
2023-04-08T02:09:54.358Z,236.13
2023-04-08T02:10:54.408Z,239.22
2023-04-08T02:11:54.471Z,240.80
2023-04-08T02:12:54.481Z,238.35
2023-04-08T02:13:54.517Z,237.18
2023-04-08T02:14:54.538Z,237.97
2023-04-08T02:15:54.606Z,238.54
2023-04-08T02:16:54.639Z,236.93
2023-04-08T02:17:54.704Z,238.48
2023-04-08T02:18:54.709Z,237.33
2023-04-08T02:19:54.773Z,238.19
2023-04-08T02:20:54.815Z,236.34
2023-04-08T02:21:54.841Z,235.88
2023-04-08T02:22:54.879Z,235.53
2023-04-08T02:23:54.913Z,237.69
2023-04-08T02:24:54.968Z,237.74
2023-04-08T02:25:55.041Z,239.77
2023-04-08T02:26:55.025Z,237.60
2023-04-08T02:27:55.091Z,237.75
2023-04-08T02:28:55.140Z,235.98
2023-04-08T02:29:55.204Z,235.31
2023-04-08T02:30:55.184Z,232.22
2023-04-08T02:31:55.392Z,234.14
2023-04-08T02:32:55.301Z,234.65
2023-04-08T02:33:55.347Z,233.64
2023-04-08T02:34:55.395Z,234.99
2023-04-08T02:35:55.444Z,236.79
2023-04-08T02:36:55.434Z,236.07
2023-04-08T02:37:55.518Z,237.45
2023-04-08T02:38:55.532Z,236.15
2023-04-08T02:39:55.589Z,238.23
2023-04-08T02:40:55.589Z,241.13
2023-04-08T02:41:55.661Z,242.82
2023-04-08T02:42:55.664Z,243.32
2023-04-08T02:43:55.747Z,243.31
2023-04-08T02:44:55.840Z,244.83
2023-04-08T02:45:55.831Z,243.21
2023-04-08T02:46:55.809Z,242.33
2023-04-08T02:47:55.932Z,244.11
2023-04-08T02:48:55.923Z,248.01
2023-04-08T02:49:55.933Z,248.17
2023-04-08T02:50:56.028Z,248.31
2023-04-08T02:51:56.035Z,248.05
2023-04-08T02:52:56.080Z,248.17
2023-04-08T02:53:56.145Z,248.88
2023-04-08T02:54:56.197Z,248.56
2023-04-08T02:55:56.215Z,246.73
2023-04-08T02:56:56.263Z,248.50
2023-04-08T02:57:56.289Z,250.00
2023-04-08T02:58:56.347Z,248.98
2023-04-08T02:59:56.373Z,246.41
2023-04-08T03:00:56.495Z,249.41
2023-04-08T03:01:56.593Z,247.41
2023-04-08T03:02:56.674Z,248.61
2023-04-08T03:03:56.598Z,248.08
2023-04-08T03:04:56.573Z,249.67
2023-04-08T03:05:56.636Z,248.00
2023-04-08T03:06:56.684Z,249.54
2023-04-08T03:07:56.731Z,247.49
2023-04-08T03:08:56.815Z,249.00
2023-04-08T03:09:56.821Z,249.17
2023-04-08T03:10:56.846Z,246.82
2023-04-08T03:11:56.912Z,246.46
2023-04-08T03:12:56.936Z,248.50
2023-04-08T03:13:56.961Z,245.84
2023-04-08T03:14:57.047Z,247.72
2023-04-08T03:15:57.064Z,248.10
2023-04-08T03:16:57.126Z,246.86
2023-04-08T03:17:57.210Z,248.00
2023-04-08T03:18:57.174Z,249.59
2023-04-08T03:19:57.241Z,248.21
2023-04-08T03:20:57.307Z,246.70
2023-04-08T03:21:57.309Z,248.68
2023-04-08T03:22:57.348Z,246.79
2023-04-08T03:23:57.368Z,247.89
2023-04-08T03:24:57.456Z,247.03
2023-04-08T03:25:57.474Z,249.91
2023-04-08T03:26:57.546Z,247.96
2023-04-08T03:27:57.641Z,248.73
2023-04-08T03:28:57.597Z,246.46
2023-04-08T03:29:57.636Z,249.44
2023-04-08T03:30:57.696Z,249.72
2023-04-08T03:31:57.755Z,249.71
2023-04-08T03:32:57.826Z,249.00
2023-04-08T03:33:57.769Z,248.45
2023-04-08T03:34:57.797Z,248.23
2023-04-08T03:35:57.888Z,249.14
2023-04-08T03:36:57.934Z,247.36
2023-04-08T03:37:57.928Z,245.09
2023-04-08T03:38:58.006Z,248.61
2023-04-08T03:39:58.050Z,248.89
2023-04-08T03:40:58.075Z,248.87
2023-04-08T03:41:58.103Z,247.25
2023-04-08T03:42:58.122Z,245.57
2023-04-08T03:43:58.148Z,248.79
2023-04-08T03:44:58.217Z,243.38
2023-04-08T03:45:58.310Z,244.78
2023-04-08T03:46:58.299Z,247.64
2023-04-08T03:47:58.413Z,244.88
2023-04-08T03:48:58.365Z,243.20
2023-04-08T03:49:58.430Z,243.01
2023-04-08T03:50:58.468Z,243.00
2023-04-08T03:51:58.492Z,243.35
2023-04-08T03:52:58.563Z,244.64
2023-04-08T03:53:58.598Z,244.67
2023-04-08T03:54:58.638Z,245.41
2023-04-08T03:55:58.664Z,244.12
2023-04-08T03:56:58.727Z,246.52
2023-04-08T03:57:58.797Z,242.21
2023-04-08T03:58:58.818Z,244.20
2023-04-08T03:59:58.862Z,247.64
2023-04-08T04:00:58.890Z,246.26
2023-04-08T04:01:58.970Z,245.02
2023-04-08T04:02:59.069Z,250.00
2023-04-08T04:03:59.169Z,248.57
2023-04-08T04:04:59.158Z,246.75
2023-04-08T04:05:59.100Z,248.71
2023-04-08T04:06:59.118Z,248.20
2023-04-08T04:07:59.167Z,250.00
2023-04-08T04:08:59.221Z,249.32
2023-04-08T04:09:59.274Z,248.36
2023-04-08T04:10:59.286Z,249.99
2023-04-08T04:11:59.349Z,245.65
2023-04-08T04:12:59.388Z,245.70
2023-04-08T04:13:59.427Z,243.81
2023-04-08T04:14:59.484Z,247.73
2023-04-08T04:15:59.566Z,248.25
2023-04-08T04:16:59.537Z,248.15
2023-04-08T04:17:59.700Z,250.00
2023-04-08T04:18:59.685Z,248.74
2023-04-08T04:19:59.679Z,247.98
2023-04-08T04:20:59.742Z,248.25
2023-04-08T04:21:59.743Z,246.08
2023-04-08T04:22:59.824Z,247.90
2023-04-08T04:23:59.872Z,246.88
2023-04-08T04:24:59.923Z,246.27
2023-04-08T04:25:59.960Z,243.50
2023-04-08T04:26:59.982Z,246.28
2023-04-08T04:28:00.043Z,247.71
2023-04-08T04:29:00.102Z,244.44
2023-04-08T04:30:00.195Z,245.88
2023-04-08T04:31:00.251Z,247.53
2023-04-08T04:32:00.218Z,248.55
2023-04-08T04:33:00.301Z,248.39
2023-04-08T04:34:00.267Z,248.99
2023-04-08T04:35:00.323Z,247.80
2023-04-08T04:36:00.406Z,250.00
2023-04-08T04:37:00.420Z,249.90
2023-04-08T04:38:00.488Z,249.36
2023-04-08T04:39:00.491Z,247.33
2023-04-08T04:40:00.540Z,248.66
2023-04-08T04:41:00.583Z,248.12
2023-04-08T04:42:00.652Z,246.67
2023-04-08T04:43:00.672Z,246.00
2023-04-08T04:44:00.718Z,248.21
2023-04-08T04:45:00.760Z,249.61
2023-04-08T04:46:00.869Z,247.44
2023-04-08T04:47:00.880Z,248.44
2023-04-08T04:48:00.924Z,249.86
2023-04-08T04:49:00.922Z,247.53
2023-04-08T04:50:01.043Z,249.53
2023-04-08T04:51:01.004Z,249.33
2023-04-08T04:52:01.039Z,247.05
2023-04-08T04:53:01.113Z,248.03
2023-04-08T04:54:01.204Z,247.20
2023-04-08T04:55:01.192Z,248.63
2023-04-08T04:56:01.296Z,249.03
2023-04-08T04:57:01.310Z,249.81
2023-04-08T04:58:01.354Z,246.69
2023-04-08T04:59:01.424Z,248.91
2023-04-08T05:00:03.912Z,250.00
2023-04-08T05:01:01.440Z,247.68
2023-04-08T05:02:01.478Z,248.60
2023-04-08T05:03:01.535Z,248.83
2023-04-08T05:04:01.394Z,248.80
2023-04-08T05:05:01.420Z,247.97
2023-04-08T05:06:01.425Z,245.65
2023-04-08T05:07:01.398Z,246.77
2023-04-08T05:08:01.378Z,245.58
2023-04-08T05:09:01.369Z,247.77
2023-04-08T05:10:01.373Z,246.12
2023-04-08T05:11:01.394Z,245.35
2023-04-08T05:12:01.393Z,245.41
2023-04-08T05:13:01.383Z,246.44
2023-04-08T05:14:01.371Z,245.32
2023-04-08T05:15:01.383Z,246.41
2023-04-08T05:16:01.850Z,246.17
2023-04-08T05:17:01.346Z,245.73
2023-04-08T05:18:01.376Z,247.42
2023-04-08T05:19:01.357Z,247.17
2023-04-08T05:20:01.321Z,249.67
2023-04-08T05:21:01.333Z,247.89
2023-04-08T05:22:01.365Z,246.91
2023-04-08T05:23:01.339Z,246.00
2023-04-08T05:24:01.293Z,248.21
2023-04-08T05:25:01.280Z,249.34
2023-04-08T05:26:01.318Z,247.58
2023-04-08T05:27:01.271Z,248.19
2023-04-08T05:28:01.262Z,248.59
2023-04-08T05:29:01.264Z,247.20
2023-04-08T05:30:01.271Z,247.75
2023-04-08T05:31:01.298Z,250.00
2023-04-08T05:32:01.275Z,248.62
2023-04-08T05:33:01.330Z,246.81
2023-04-08T05:34:01.351Z,249.26
2023-04-08T05:35:01.344Z,247.95
2023-04-08T05:36:01.435Z,248.43
2023-04-08T05:37:01.440Z,245.66
2023-04-08T05:38:01.511Z,247.51
2023-04-08T05:39:03.307Z,247.97
2023-04-08T05:40:01.579Z,248.27
2023-04-08T05:41:01.623Z,245.16
2023-04-08T05:42:01.670Z,244.45
2023-04-08T05:43:01.708Z,244.90
2023-04-08T05:44:01.755Z,243.59
2023-04-08T05:45:01.838Z,245.74
2023-04-08T05:46:01.844Z,243.25
2023-04-08T05:47:01.916Z,241.12
2023-04-08T05:48:01.960Z,243.08
2023-04-08T05:49:01.991Z,243.20
2023-04-08T05:50:02.039Z,239.03
2023-04-08T05:51:02.101Z,238.63
2023-04-08T05:52:02.136Z,238.22
2023-04-08T05:53:02.164Z,238.99
2023-04-08T05:54:02.226Z,237.18
2023-04-08T05:55:02.276Z,236.43
2023-04-08T05:56:02.319Z,238.56
2023-04-08T05:57:02.359Z,235.14
2023-04-08T05:58:02.396Z,235.61
2023-04-08T05:59:02.500Z,232.67
2023-04-08T06:00:02.448Z,231.71
2023-04-08T06:01:02.545Z,232.55
2023-04-08T06:02:02.659Z,231.37
2023-04-08T06:03:02.830Z,233.30
2023-04-08T06:04:02.868Z,233.30
2023-04-08T06:05:02.829Z,233.73
2023-04-08T06:06:02.762Z,234.58
2023-04-08T06:07:02.810Z,233.49
2023-04-08T06:08:02.873Z,233.30
2023-04-08T06:09:02.884Z,234.99
2023-04-08T06:10:02.980Z,234.74
2023-04-08T06:11:03.008Z,233.16
2023-04-08T06:12:03.025Z,235.11
2023-04-08T06:13:03.101Z,234.19
2023-04-08T06:14:03.125Z,233.69
2023-04-08T06:15:03.208Z,232.09
2023-04-08T06:16:03.244Z,231.72
2023-04-08T06:17:03.364Z,234.46
2023-04-08T06:18:03.364Z,233.25
2023-04-08T06:19:03.356Z,235.84
2023-04-08T06:20:03.466Z,234.54
2023-04-08T06:21:03.473Z,233.90
2023-04-08T06:22:03.539Z,233.41
2023-04-08T06:23:03.589Z,232.81
2023-04-08T06:24:03.636Z,232.56
2023-04-08T06:25:03.644Z,232.43
2023-04-08T06:26:03.700Z,230.68
2023-04-08T06:27:03.757Z,229.33
2023-04-08T06:28:03.774Z,227.56
2023-04-08T06:29:03.826Z,228.33
2023-04-08T06:30:03.881Z,228.38
2023-04-08T06:31:03.946Z,229.48
2023-04-08T06:32:04.025Z,229.12
2023-04-08T06:33:04.037Z,229.46
2023-04-08T06:34:04.061Z,228.51
2023-04-08T06:35:04.091Z,229.72
2023-04-08T06:36:04.276Z,229.92
2023-04-08T06:37:04.186Z,230.99
2023-04-08T06:38:04.261Z,230.04
2023-04-08T06:39:04.327Z,232.29
2023-04-08T06:40:04.396Z,232.01
2023-04-08T06:41:04.377Z,231.76
2023-04-08T06:42:04.398Z,231.48
2023-04-08T06:43:04.435Z,232.70
2023-04-08T06:44:04.434Z,234.87
2023-04-08T06:45:04.476Z,235.73
2023-04-08T06:46:04.543Z,234.28
2023-04-08T06:47:04.546Z,234.91
2023-04-08T06:48:04.575Z,235.90
2023-04-08T06:49:04.720Z,233.85
2023-04-08T06:50:04.654Z,235.10
2023-04-08T06:51:04.693Z,236.46
2023-04-08T06:52:04.686Z,237.32
2023-04-08T06:53:04.718Z,238.49
2023-04-08T06:54:04.725Z,238.43
2023-04-08T06:55:04.788Z,236.86
2023-04-08T06:56:04.834Z,237.58
2023-04-08T06:57:04.828Z,237.52
2023-04-08T06:58:04.832Z,234.41
2023-04-08T06:59:05.784Z,233.76
2023-04-08T07:00:04.870Z,235.19
2023-04-08T07:01:04.997Z,235.12
2023-04-08T07:02:05.025Z,236.59
2023-04-08T07:03:05.009Z,236.50
2023-04-08T07:04:04.986Z,233.34
2023-04-08T07:05:04.972Z,233.64
2023-04-08T07:06:05.011Z,236.02
2023-04-08T07:07:05.032Z,238.34
2023-04-08T07:08:05.064Z,236.94
2023-04-08T07:09:05.080Z,238.39
2023-04-08T07:10:05.115Z,237.65
2023-04-08T07:11:05.130Z,240.79
2023-04-08T07:12:05.136Z,240.08
2023-04-08T07:13:05.197Z,238.35
2023-04-08T07:14:05.211Z,239.14
2023-04-08T07:15:05.220Z,238.24
2023-04-08T07:16:05.295Z,236.86
2023-04-08T07:17:05.366Z,234.77
2023-04-08T07:18:05.344Z,235.04
2023-04-08T07:19:05.325Z,235.89
2023-04-08T07:20:05.385Z,236.24
2023-04-08T07:21:05.438Z,234.37
2023-04-08T07:22:05.404Z,236.81
2023-04-08T07:23:05.448Z,238.35
2023-04-08T07:24:05.486Z,236.70
2023-04-08T07:25:05.528Z,233.57
2023-04-08T07:26:05.538Z,236.69
2023-04-08T07:27:05.574Z,234.53
2023-04-08T07:28:05.602Z,230.26
2023-04-08T07:29:05.662Z,227.41
2023-04-08T07:30:05.658Z,229.54
2023-04-08T07:31:05.713Z,226.37
2023-04-08T07:32:05.725Z,225.51
2023-04-08T07:33:05.793Z,224.80
2023-04-08T07:34:05.766Z,224.98
2023-04-08T07:35:05.813Z,224.93
2023-04-08T07:36:05.905Z,224.60
2023-04-08T07:37:05.878Z,222.81
2023-04-08T07:38:05.938Z,224.38
2023-04-08T07:39:05.973Z,225.06
2023-04-08T07:40:06.022Z,224.23
2023-04-08T07:41:06.026Z,226.90
2023-04-08T07:42:06.082Z,227.19
2023-04-08T07:43:06.056Z,229.78
2023-04-08T07:44:06.110Z,226.85
2023-04-08T07:45:06.142Z,227.81
2023-04-08T07:46:06.322Z,226.38
2023-04-08T07:47:06.209Z,225.81
2023-04-08T07:48:06.258Z,222.25
2023-04-08T07:49:06.237Z,224.14
2023-04-08T07:50:06.281Z,220.78
2023-04-08T07:51:09.870Z,224.03
2023-04-08T07:52:06.280Z,224.04
2023-04-08T07:53:08.062Z,224.35
2023-04-08T07:54:06.300Z,225.26
2023-04-08T07:55:06.278Z,227.08
2023-04-08T07:56:06.287Z,227.35
2023-04-08T07:57:06.263Z,224.05
2023-04-08T07:58:06.257Z,223.62
2023-04-08T07:59:06.243Z,222.54
2023-04-08T08:00:06.271Z,227.30
2023-04-08T08:01:06.257Z,223.94
2023-04-08T08:02:06.259Z,225.14
2023-04-08T08:03:06.321Z,226.47
2023-04-08T08:04:06.291Z,227.33
2023-04-08T08:05:06.256Z,228.49
2023-04-08T08:06:06.193Z,226.61
2023-04-08T08:07:06.211Z,226.94
2023-04-08T08:08:06.201Z,229.53
2023-04-08T08:09:06.201Z,228.74
2023-04-08T08:10:06.213Z,227.06
2023-04-08T08:11:06.266Z,224.83
2023-04-08T08:12:06.255Z,223.37
2023-04-08T08:13:06.290Z,224.06
2023-04-08T08:14:06.347Z,224.68
2023-04-08T08:15:06.366Z,224.42
2023-04-08T08:16:06.428Z,224.02
2023-04-08T08:17:06.408Z,224.10
2023-04-08T08:18:06.488Z,222.27
2023-04-08T08:19:06.410Z,223.53
2023-04-08T08:20:06.476Z,222.15
2023-04-08T08:21:06.481Z,220.73
2023-04-08T08:22:06.550Z,224.36
2023-04-08T08:23:06.541Z,219.21
2023-04-08T08:24:06.544Z,217.30
2023-04-08T08:25:06.594Z,216.14
2023-04-08T08:26:06.560Z,215.23
2023-04-08T08:27:06.618Z,215.10
2023-04-08T08:28:06.670Z,214.30
2023-04-08T08:29:06.603Z,210.30
2023-04-08T08:30:06.617Z,208.96
2023-04-08T08:31:06.692Z,208.91
2023-04-08T08:32:06.663Z,209.25
2023-04-08T08:33:06.684Z,211.27
2023-04-08T08:34:06.700Z,212.95
2023-04-08T08:35:06.704Z,215.43
2023-04-08T08:36:06.721Z,217.38
2023-04-08T08:37:06.752Z,214.75
2023-04-08T08:38:06.745Z,215.28
2023-04-08T08:39:06.783Z,212.87
2023-04-08T08:40:06.793Z,210.23
2023-04-08T08:41:06.780Z,209.63
2023-04-08T08:42:06.813Z,201.95
2023-04-08T08:43:06.828Z,201.75
2023-04-08T08:44:06.839Z,196.78
2023-04-08T08:45:06.840Z,199.53
2023-04-08T08:46:06.874Z,202.37
2023-04-08T08:47:06.872Z,201.83
2023-04-08T08:48:06.929Z,204.44
2023-04-08T08:49:06.882Z,207.72
2023-04-08T08:50:06.858Z,205.41
2023-04-08T08:51:06.876Z,209.58
2023-04-08T08:52:06.904Z,205.57
2023-04-08T08:53:06.911Z,203.96
2023-04-08T08:54:06.946Z,202.79
2023-04-08T08:55:21.830Z,206.45
2023-04-08T08:57:07.907Z,206.08
2023-04-08T08:58:06.899Z,195.87
2023-04-08T08:59:06.900Z,192.23
2023-04-08T09:00:06.895Z,193.04
2023-04-08T09:01:06.875Z,192.48
2023-04-08T09:02:07.015Z,188.07
2023-04-08T09:03:07.033Z,185.84
2023-04-08T09:04:07.520Z,186.61
2023-04-08T09:05:06.958Z,191.66
2023-04-08T09:06:06.842Z,189.27
2023-04-08T09:07:06.863Z,185.83
2023-04-08T09:08:06.822Z,185.73
2023-04-08T09:09:06.837Z,189.51
2023-04-08T09:10:06.828Z,185.97
2023-04-08T09:11:06.810Z,180.02
2023-04-08T09:12:06.816Z,182.84
2023-04-08T09:13:06.792Z,184.52
2023-04-08T09:14:06.783Z,185.72
2023-04-08T09:15:06.794Z,188.09
2023-04-08T09:16:06.794Z,183.88
2023-04-08T09:17:06.792Z,185.35
2023-04-08T09:18:06.855Z,177.18
2023-04-08T09:19:06.754Z,168.50
2023-04-08T09:20:06.794Z,162.79
2023-04-08T09:21:06.804Z,165.82
2023-04-08T09:22:06.766Z,166.20
2023-04-08T09:23:06.760Z,169.63
2023-04-08T09:24:06.728Z,169.75
2023-04-08T09:25:06.739Z,160.22
2023-04-08T09:26:06.769Z,155.79
2023-04-08T09:27:06.715Z,155.98
2023-04-08T09:28:06.714Z,157.71
2023-04-08T09:29:24.360Z,154.37
2023-04-08T09:30:07.729Z,150.30
2023-04-08T09:31:06.707Z,148.11
2023-04-08T09:32:06.852Z,153.90
2023-04-08T09:33:06.734Z,150.42
2023-04-08T09:34:06.687Z,144.31
2023-04-08T09:35:07.053Z,139.54
2023-04-08T09:36:06.703Z,148.99
2023-04-08T09:37:06.668Z,148.21
2023-04-08T09:38:06.644Z,147.83
2023-04-08T09:39:06.615Z,139.25
2023-04-08T09:40:06.644Z,131.26
2023-04-08T09:41:06.600Z,130.92
2023-04-08T09:42:06.622Z,132.52
2023-04-08T09:43:06.600Z,125.83
2023-04-08T09:44:06.617Z,132.34
2023-04-08T09:45:06.601Z,137.63
2023-04-08T09:46:06.607Z,139.23
2023-04-08T09:47:06.609Z,138.34
2023-04-08T09:48:06.736Z,139.71
2023-04-08T09:49:06.574Z,136.85
2023-04-08T09:50:06.593Z,139.44
2023-04-08T09:51:06.554Z,128.24
2023-04-08T09:52:06.544Z,123.06
2023-04-08T09:53:06.555Z,123.88
2023-04-08T09:54:06.542Z,125.55
2023-04-08T09:55:06.656Z,113.57
2023-04-08T09:56:06.528Z,116.12
2023-04-08T09:57:06.540Z,116.21
2023-04-08T09:58:06.517Z,118.76
2023-04-08T09:59:06.900Z,116.09
2023-04-08T10:00:06.521Z,115.71
2023-04-08T10:01:06.530Z,118.36
2023-04-08T10:02:06.566Z,121.26
2023-04-08T10:03:06.709Z,122.80
2023-04-08T10:04:06.630Z,126.13
2023-04-08T10:05:08.279Z,132.03
2023-04-08T10:06:06.484Z,133.11
2023-04-08T10:07:06.475Z,116.77
2023-04-08T10:08:06.456Z,112.13
2023-04-08T10:09:06.491Z,115.67
2023-04-08T10:10:06.447Z,120.00
2023-04-08T10:11:06.429Z,125.47
2023-04-08T10:12:06.456Z,128.65
2023-04-08T10:13:06.431Z,130.37
2023-04-08T10:14:06.440Z,128.04
2023-04-08T10:15:06.446Z,115.92
2023-04-08T10:16:07.590Z,111.82
2023-04-08T10:17:06.655Z,116.19
2023-04-08T10:18:06.604Z,118.45
2023-04-08T10:19:06.516Z,113.28
2023-04-08T10:20:06.532Z,117.64
2023-04-08T10:21:06.526Z,115.54
2023-04-08T10:22:07.969Z,105.83
2023-04-08T10:23:06.565Z,109.73
2023-04-08T10:24:06.546Z,114.91
2023-04-08T10:25:06.545Z,115.47
2023-04-08T10:26:06.557Z,107.53
2023-04-08T10:27:06.560Z,93.64
2023-04-08T10:28:07.623Z,90.73
2023-04-08T10:29:06.604Z,96.83
2023-04-08T10:30:06.588Z,99.54
2023-04-08T10:31:06.596Z,93.72
2023-04-08T10:32:06.687Z,91.54
2023-04-08T10:33:06.630Z,92.95
2023-04-08T10:34:06.629Z,106.60
2023-04-08T10:35:06.655Z,111.68
2023-04-08T10:36:06.728Z,109.33
2023-04-08T10:37:06.680Z,104.02
2023-04-08T10:38:06.703Z,107.47
2023-04-08T10:39:06.703Z,108.36
2023-04-08T10:40:06.716Z,106.54
2023-04-08T10:41:06.723Z,110.58
2023-04-08T10:42:06.750Z,113.11
2023-04-08T10:43:06.754Z,115.01
2023-04-08T10:44:06.742Z,123.13
2023-04-08T10:45:06.769Z,124.38
2023-04-08T10:46:06.817Z,122.13
2023-04-08T10:47:06.828Z,120.94
2023-04-08T10:48:06.804Z,116.67
2023-04-08T10:49:06.808Z,118.15
2023-04-08T10:50:06.824Z,118.10
2023-04-08T10:51:06.854Z,116.31
2023-04-08T10:52:06.866Z,122.16
2023-04-08T10:53:06.873Z,121.00
2023-04-08T10:54:06.888Z,126.75
2023-04-08T10:55:06.883Z,124.76
2023-04-08T10:56:06.908Z,132.76
2023-04-08T10:57:06.920Z,137.23
2023-04-08T10:58:06.900Z,126.72
2023-04-08T10:59:06.927Z,126.03
2023-04-08T11:00:06.913Z,137.03
2023-04-08T11:01:07.121Z,126.84
2023-04-08T11:02:07.150Z,126.36
2023-04-08T11:03:07.105Z,132.92
2023-04-08T11:04:07.091Z,145.08
2023-04-08T11:05:07.006Z,135.04
2023-04-08T11:06:07.046Z,142.92
2023-04-08T11:07:07.055Z,151.15
2023-04-08T11:08:07.043Z,135.27
2023-04-08T11:09:07.066Z,131.71
2023-04-08T11:10:07.067Z,127.06
2023-04-08T11:11:07.083Z,120.26
2023-04-08T11:12:07.107Z,130.09
2023-04-08T11:13:07.080Z,121.15
2023-04-08T11:14:07.119Z,120.14
2023-04-08T11:15:07.121Z,124.54
2023-04-08T11:16:16.991Z,120.30
2023-04-08T11:17:08.140Z,120.39
2023-04-08T11:18:07.150Z,120.41
2023-04-08T11:19:07.132Z,112.68
2023-04-08T11:20:07.093Z,111.77
2023-04-08T11:21:07.112Z,109.93
2023-04-08T11:22:07.124Z,111.30
2023-04-08T11:23:07.090Z,109.58
2023-04-08T11:24:07.093Z,107.19
2023-04-08T11:25:07.085Z,111.45
2023-04-08T11:26:07.096Z,115.78
2023-04-08T11:27:07.450Z,117.26
2023-04-08T11:28:07.056Z,112.01
2023-04-08T11:29:07.052Z,104.62
2023-04-08T11:30:07.018Z,106.23
2023-04-08T11:31:07.049Z,104.81
2023-04-08T11:32:07.041Z,98.61
2023-04-08T11:33:07.046Z,99.67
2023-04-08T11:34:07.029Z,98.86
2023-04-08T11:35:07.015Z,103.77
2023-04-08T11:36:07.076Z,99.18
2023-04-08T11:37:06.997Z,96.53
2023-04-08T11:38:07.003Z,98.23
2023-04-08T11:39:07.039Z,96.18
2023-04-08T11:40:06.967Z,100.67
2023-04-08T11:41:06.979Z,97.34
2023-04-08T11:42:06.944Z,99.15
2023-04-08T11:43:06.976Z,95.44
2023-04-08T11:44:06.979Z,98.98
2023-04-08T11:45:06.969Z,100.10
2023-04-08T11:46:07.025Z,96.64
2023-04-08T11:47:06.969Z,95.43
2023-04-08T11:48:07.027Z,91.92
2023-04-08T11:49:06.981Z,87.61
2023-04-08T11:50:07.016Z,87.51
2023-04-08T11:51:07.009Z,80.86
2023-04-08T11:52:07.016Z,80.35
2023-04-08T11:53:07.017Z,80.72
2023-04-08T11:54:07.071Z,72.50
2023-04-08T11:55:07.035Z,64.06
2023-04-08T11:56:07.026Z,60.73
2023-04-08T11:57:07.063Z,60.34
2023-04-08T11:58:07.089Z,60.84
2023-04-08T11:59:07.095Z,60.16
2023-04-08T12:00:07.082Z,64.02
2023-04-08T12:01:07.082Z,65.67
2023-04-08T12:02:07.114Z,74.69
2023-04-08T12:03:07.173Z,71.43
2023-04-08T12:04:07.349Z,70.68
2023-04-08T12:05:07.161Z,72.01
2023-04-08T12:06:07.107Z,71.97
2023-04-08T12:07:07.121Z,66.91
2023-04-08T12:08:07.161Z,59.34
2023-04-08T12:09:07.178Z,64.27
2023-04-08T12:10:07.144Z,72.70
2023-04-08T12:11:19.195Z,78.43
2023-04-08T12:12:08.136Z,66.56
2023-04-08T12:13:07.151Z,71.73
2023-04-08T12:14:07.146Z,68.87
2023-04-08T12:15:07.119Z,57.74
2023-04-08T12:16:07.136Z,38.13
2023-04-08T12:17:07.137Z,27.91
2023-04-08T12:18:07.154Z,25.00
2023-04-08T12:19:07.093Z,26.58
2023-04-08T12:20:07.118Z,25.00
2023-04-08T12:21:07.094Z,25.57
2023-04-08T12:22:07.083Z,25.00
2023-04-08T12:23:07.088Z,26.23
2023-04-08T12:24:07.053Z,27.39
2023-04-08T12:25:07.065Z,33.10
2023-04-08T12:26:07.061Z,39.66
2023-04-08T12:27:07.046Z,30.82
2023-04-08T12:28:07.030Z,29.36
2023-04-08T12:29:07.063Z,37.85
2023-04-08T12:30:07.024Z,44.98
2023-04-08T12:31:07.080Z,46.42
2023-04-08T12:32:07.091Z,43.23